sensor_id;sensor_type;location;lat;lon;timestamp;temperature;humidity
69533;DHT22;56729;52.036;5.332;2024-02-16T00:00:06;10.80;99.90
69533;DHT22;56729;52.036;5.332;2024-02-16T00:01:14;10.80;99.90
69533;DHT22;56729;52.036;5.332;2024-02-16T00:02:17;10.80;99.90
69533;DHT22;56729;52.036;5.332;2024-02-16T00:03:19;10.70;99.90
69533;DHT22;56729;52.036;5.332;2024-02-16T00:04:22;10.70;99.90
69533;DHT22;56729;52.036;5.332;2024-02-16T00:05:24;10.80;99.90
69533;DHT22;56729;52.036;5.332;2024-02-16T00:06:26;10.70;99.90
69533;DHT22;56729;52.036;5.332;2024-02-16T00:07:28;10.70;99.90
69533;DHT22;56729;52.036;5.332;2024-02-16T00:08:30;10.70;99.90
69533;DHT22;56729;52.036;5.332;2024-02-16T00:09:32;10.70;99.90
69533;DHT22;56729;52.036;5.332;2024-02-16T00:10:35;10.70;99.90
69533;DHT22;56729;52.036;5.332;2024-02-16T00:11:37;10.70;99.90
69533;DHT22;56729;52.036;5.332;2024-02-16T00:12:39;10.70;99.90
69533;DHT22;56729;52.036;5.332;2024-02-16T00:13:41;10.70;99.90
69533;DHT22;56729;52.036;5.332;2024-02-16T00:14:43;10.70;99.90
69533;DHT22;56729;52.036;5.332;2024-02-16T00:15:48;10.70;99.90
69533;DHT22;56729;52.036;5.332;2024-02-16T00:16:50;10.70;99.90
69533;DHT22;56729;52.036;5.332;2024-02-16T00:17:52;10.60;99.90
69533;DHT22;56729;52.036;5.332;2024-02-16T00:18:54;10.60;99.90
69533;DHT22;56729;52.036;5.332;2024-02-16T00:19:56;10.70;99.90
69533;DHT22;56729;52.036;5.332;2024-02-16T00:20:59;10.60;99.90
69533;DHT22;56729;52.036;5.332;2024-02-16T00:22:02;10.60;99.90
69533;DHT22;56729;52.036;5.332;2024-02-16T00:23:04;10.60;99.90
69533;DHT22;56729;52.036;5.332;2024-02-16T00:24:07;10.60;99.90
69533;DHT22;56729;52.036;5.332;2024-02-16T00:25:09;10.60;99.90
69533;DHT22;56729;52.036;5.332;2024-02-16T00:26:11;10.60;99.90
69533;DHT22;56729;52.036;5.332;2024-02-16T00:27:14;10.60;99.90
69533;DHT22;56729;52.036;5.332;2024-02-16T00:28:16;10.60;99.90
69533;DHT22;56729;52.036;5.332;2024-02-16T00:29:18;10.60;99.90
69533;DHT22;56729;52.036;5.332;2024-02-16T00:30:22;10.60;99.90
69533;DHT22;56729;52.036;5.332;2024-02-16T00:31:24;10.60;99.90
69533;DHT22;56729;52.036;5.332;2024-02-16T00:32:26;10.60;99.90
69533;DHT22;56729;52.036;5.332;2024-02-16T00:33:32;10.60;99.90
69533;DHT22;56729;52.036;5.332;2024-02-16T00:34:36;10.60;99.90
69533;DHT22;56729;52.036;5.332;2024-02-16T00:35:41;10.60;99.90
69533;DHT22;56729;52.036;5.332;2024-02-16T00:36:42;10.60;99.90
69533;DHT22;56729;52.036;5.332;2024-02-16T00:37:45;10.60;99.90
69533;DHT22;56729;52.036;5.332;2024-02-16T00:38:48;10.50;99.90
69533;DHT22;56729;52.036;5.332;2024-02-16T00:39:50;10.60;99.90
69533;DHT22;56729;52.036;5.332;2024-02-16T00:40:54;10.50;99.90
69533;DHT22;56729;52.036;5.332;2024-02-16T00:41:56;10.60;99.90
69533;DHT22;56729;52.036;5.332;2024-02-16T00:42:58;10.50;99.90
69533;DHT22;56729;52.036;5.332;2024-02-16T00:44:02;10.50;99.90
69533;DHT22;56729;52.036;5.332;2024-02-16T00:45:05;10.50;99.90
69533;DHT22;56729;52.036;5.332;2024-02-16T00:46:07;10.50;99.90
69533;DHT22;56729;52.036;5.332;2024-02-16T00:47:08;10.50;99.90
69533;DHT22;56729;52.036;5.332;2024-02-16T00:48:12;10.50;99.90
69533;DHT22;56729;52.036;5.332;2024-02-16T00:49:14;10.50;99.90
69533;DHT22;56729;52.036;5.332;2024-02-16T00:50:16;10.50;99.90
69533;DHT22;56729;52.036;5.332;2024-02-16T00:51:18;10.50;99.90
69533;DHT22;56729;52.036;5.332;2024-02-16T00:52:24;10.50;99.90
69533;DHT22;56729;52.036;5.332;2024-02-16T00:53:26;10.50;99.90
69533;DHT22;56729;52.036;5.332;2024-02-16T00:54:28;10.50;99.90
69533;DHT22;56729;52.036;5.332;2024-02-16T00:55:30;10.50;99.90
69533;DHT22;56729;52.036;5.332;2024-02-16T00:56:32;10.50;99.90
69533;DHT22;56729;52.036;5.332;2024-02-16T00:57:34;10.50;99.90
69533;DHT22;56729;52.036;5.332;2024-02-16T00:58:36;10.50;99.90
69533;DHT22;56729;52.036;5.332;2024-02-16T00:59:40;10.50;99.90
69533;DHT22;56729;52.036;5.332;2024-02-16T01:00:42;10.50;99.90
69533;DHT22;56729;52.036;5.332;2024-02-16T01:01:45;10.50;99.90
69533;DHT22;56729;52.036;5.332;2024-02-16T01:02:47;10.50;99.90
69533;DHT22;56729;52.036;5.332;2024-02-16T01:03:49;10.50;99.90
69533;DHT22;56729;52.036;5.332;2024-02-16T01:04:51;10.50;99.90
69533;DHT22;56729;52.036;5.332;2024-02-16T01:05:53;10.50;99.90
69533;DHT22;56729;52.036;5.332;2024-02-16T01:06:55;10.40;99.90
69533;DHT22;56729;52.036;5.332;2024-02-16T01:07:57;10.40;99.90
69533;DHT22;56729;52.036;5.332;2024-02-16T01:08:59;10.40;99.90
69533;DHT22;56729;52.036;5.332;2024-02-16T01:10:01;10.40;99.90
69533;DHT22;56729;52.036;5.332;2024-02-16T01:11:05;10.40;99.90
69533;DHT22;56729;52.036;5.332;2024-02-16T01:12:07;10.40;99.90
69533;DHT22;56729;52.036;5.332;2024-02-16T01:13:09;10.40;99.90
69533;DHT22;56729;52.036;5.332;2024-02-16T01:14:11;10.40;99.90
69533;DHT22;56729;52.036;5.332;2024-02-16T01:15:14;10.40;99.90
69533;DHT22;56729;52.036;5.332;2024-02-16T01:16:16;10.40;99.90
69533;DHT22;56729;52.036;5.332;2024-02-16T01:17:21;10.40;99.90
69533;DHT22;56729;52.036;5.332;2024-02-16T01:18:23;10.40;99.90
69533;DHT22;56729;52.036;5.332;2024-02-16T01:19:26;10.40;99.90
69533;DHT22;56729;52.036;5.332;2024-02-16T01:20:28;10.40;99.90
69533;DHT22;56729;52.036;5.332;2024-02-16T01:21:33;10.30;99.90
69533;DHT22;56729;52.036;5.332;2024-02-16T01:22:35;10.40;99.90
69533;DHT22;56729;52.036;5.332;2024-02-16T01:23:37;10.30;99.90
69533;DHT22;56729;52.036;5.332;2024-02-16T01:24:38;10.30;99.90
69533;DHT22;56729;52.036;5.332;2024-02-16T01:25:40;10.30;99.90
69533;DHT22;56729;52.036;5.332;2024-02-16T01:26:42;10.30;99.90
69533;DHT22;56729;52.036;5.332;2024-02-16T01:27:44;10.30;99.90
69533;DHT22;56729;52.036;5.332;2024-02-16T01:28:46;10.30;99.90
69533;DHT22;56729;52.036;5.332;2024-02-16T01:29:48;10.30;99.90
69533;DHT22;56729;52.036;5.332;2024-02-16T01:30:50;10.30;99.90
69533;DHT22;56729;52.036;5.332;2024-02-16T01:31:52;10.30;99.90
69533;DHT22;56729;52.036;5.332;2024-02-16T01:32:54;10.30;99.90
69533;DHT22;56729;52.036;5.332;2024-02-16T01:33:56;10.20;99.90
69533;DHT22;56729;52.036;5.332;2024-02-16T01:34:59;10.20;99.90
69533;DHT22;56729;52.036;5.332;2024-02-16T01:36:01;10.20;99.90
69533;DHT22;56729;52.036;5.332;2024-02-16T01:37:03;10.20;99.90
69533;DHT22;56729;52.036;5.332;2024-02-16T01:38:05;10.20;99.90
69533;DHT22;56729;52.036;5.332;2024-02-16T01:39:10;10.30;99.90
69533;DHT22;56729;52.036;5.332;2024-02-16T01:40:11;10.20;99.90
69533;DHT22;56729;52.036;5.332;2024-02-16T01:41:16;10.20;99.90
69533;DHT22;56729;52.036;5.332;2024-02-16T01:42:18;10.20;99.90
69533;DHT22;56729;52.036;5.332;2024-02-16T01:43:21;10.20;99.90
69533;DHT22;56729;52.036;5.332;2024-02-16T01:44:23;10.30;99.90
69533;DHT22;56729;52.036;5.332;2024-02-16T01:45:25;10.30;99.90
69533;DHT22;56729;52.036;5.332;2024-02-16T01:46:27;10.30;99.90
69533;DHT22;56729;52.036;5.332;2024-02-16T01:47:29;10.20;99.90
69533;DHT22;56729;52.036;5.332;2024-02-16T01:48:31;10.20;99.90
69533;DHT22;56729;52.036;5.332;2024-02-16T01:49:33;10.20;99.90
69533;DHT22;56729;52.036;5.332;2024-02-16T01:50:36;10.20;99.90
69533;DHT22;56729;52.036;5.332;2024-02-16T01:51:39;10.20;99.90
69533;DHT22;56729;52.036;5.332;2024-02-16T01:52:43;10.20;99.90
69533;DHT22;56729;52.036;5.332;2024-02-16T01:53:45;10.20;99.90
69533;DHT22;56729;52.036;5.332;2024-02-16T01:54:47;10.20;99.90
69533;DHT22;56729;52.036;5.332;2024-02-16T01:55:50;10.20;99.90
69533;DHT22;56729;52.036;5.332;2024-02-16T01:56:52;10.20;99.90
69533;DHT22;56729;52.036;5.332;2024-02-16T01:57:55;10.20;99.90
69533;DHT22;56729;52.036;5.332;2024-02-16T01:58:57;10.20;99.90
69533;DHT22;56729;52.036;5.332;2024-02-16T01:59:59;10.20;99.90
69533;DHT22;56729;52.036;5.332;2024-02-16T02:01:01;10.20;99.90
69533;DHT22;56729;52.036;5.332;2024-02-16T02:02:05;10.20;99.90
69533;DHT22;56729;52.036;5.332;2024-02-16T02:03:07;10.20;99.90
69533;DHT22;56729;52.036;5.332;2024-02-16T02:04:09;10.20;99.90
69533;DHT22;56729;52.036;5.332;2024-02-16T02:05:11;10.20;99.90
69533;DHT22;56729;52.036;5.332;2024-02-16T02:06:14;10.20;99.90
69533;DHT22;56729;52.036;5.332;2024-02-16T02:07:16;10.20;99.90
69533;DHT22;56729;52.036;5.332;2024-02-16T02:08:18;10.20;99.90
69533;DHT22;56729;52.036;5.332;2024-02-16T02:09:21;10.20;99.90
69533;DHT22;56729;52.036;5.332;2024-02-16T02:10:23;10.20;99.90
69533;DHT22;56729;52.036;5.332;2024-02-16T02:11:25;10.20;99.90
69533;DHT22;56729;52.036;5.332;2024-02-16T02:12:27;10.20;99.90
69533;DHT22;56729;52.036;5.332;2024-02-16T02:13:29;10.20;99.90
69533;DHT22;56729;52.036;5.332;2024-02-16T02:14:32;10.20;99.90
69533;DHT22;56729;52.036;5.332;2024-02-16T02:15:34;10.20;99.90
69533;DHT22;56729;52.036;5.332;2024-02-16T02:16:40;10.20;99.90
69533;DHT22;56729;52.036;5.332;2024-02-16T02:17:55;10.20;99.90
69533;DHT22;56729;52.036;5.332;2024-02-16T02:19:00;10.20;99.90
69533;DHT22;56729;52.036;5.332;2024-02-16T02:20:02;10.30;99.90
69533;DHT22;56729;52.036;5.332;2024-02-16T02:21:06;10.30;99.90
69533;DHT22;56729;52.036;5.332;2024-02-16T02:22:17;10.30;99.90
69533;DHT22;56729;52.036;5.332;2024-02-16T02:23:19;10.30;99.90
69533;DHT22;56729;52.036;5.332;2024-02-16T02:24:21;10.30;99.90
69533;DHT22;56729;52.036;5.332;2024-02-16T02:25:24;10.30;99.90
69533;DHT22;56729;52.036;5.332;2024-02-16T02:26:28;10.40;99.90
69533;DHT22;56729;52.036;5.332;2024-02-16T02:27:30;10.40;99.90
69533;DHT22;56729;52.036;5.332;2024-02-16T02:28:32;10.40;99.90
69533;DHT22;56729;52.036;5.332;2024-02-16T02:29:35;10.40;99.90
69533;DHT22;56729;52.036;5.332;2024-02-16T02:30:37;10.40;99.90
69533;DHT22;56729;52.036;5.332;2024-02-16T02:31:40;10.40;99.90
69533;DHT22;56729;52.036;5.332;2024-02-16T02:32:42;10.40;99.90
69533;DHT22;56729;52.036;5.332;2024-02-16T02:33:44;10.40;99.90
69533;DHT22;56729;52.036;5.332;2024-02-16T02:34:46;10.40;99.90
69533;DHT22;56729;52.036;5.332;2024-02-16T02:35:48;10.40;99.90
69533;DHT22;56729;52.036;5.332;2024-02-16T02:36:50;10.50;99.90
69533;DHT22;56729;52.036;5.332;2024-02-16T02:37:52;10.50;99.90
69533;DHT22;56729;52.036;5.332;2024-02-16T02:38:54;10.50;99.90
69533;DHT22;56729;52.036;5.332;2024-02-16T02:39:56;10.50;99.90
69533;DHT22;56729;52.036;5.332;2024-02-16T02:41:00;10.50;99.90
69533;DHT22;56729;52.036;5.332;2024-02-16T02:42:07;10.50;99.90
69533;DHT22;56729;52.036;5.332;2024-02-16T02:43:10;10.50;99.90
69533;DHT22;56729;52.036;5.332;2024-02-16T02:44:12;10.50;99.90
69533;DHT22;56729;52.036;5.332;2024-02-16T02:45:14;10.50;99.90
69533;DHT22;56729;52.036;5.332;2024-02-16T02:46:16;10.50;99.90
69533;DHT22;56729;52.036;5.332;2024-02-16T02:47:18;10.50;99.90
69533;DHT22;56729;52.036;5.332;2024-02-16T02:48:20;10.50;99.90
69533;DHT22;56729;52.036;5.332;2024-02-16T02:49:22;10.40;99.90
69533;DHT22;56729;52.036;5.332;2024-02-16T02:50:25;10.50;99.90
69533;DHT22;56729;52.036;5.332;2024-02-16T02:51:26;10.40;99.90
69533;DHT22;56729;52.036;5.332;2024-02-16T02:52:29;10.50;99.90
69533;DHT22;56729;52.036;5.332;2024-02-16T02:53:31;10.50;99.90
69533;DHT22;56729;52.036;5.332;2024-02-16T02:54:33;10.40;99.90
69533;DHT22;56729;52.036;5.332;2024-02-16T02:55:35;10.40;99.90
69533;DHT22;56729;52.036;5.332;2024-02-16T02:56:37;10.40;99.90
69533;DHT22;56729;52.036;5.332;2024-02-16T02:57:39;10.40;99.90
69533;DHT22;56729;52.036;5.332;2024-02-16T02:58:42;10.40;99.90
69533;DHT22;56729;52.036;5.332;2024-02-16T02:59:44;10.40;99.90
69533;DHT22;56729;52.036;5.332;2024-02-16T03:00:47;10.40;99.90
69533;DHT22;56729;52.036;5.332;2024-02-16T03:01:49;10.40;99.90
69533;DHT22;56729;52.036;5.332;2024-02-16T03:02:50;10.40;99.90
69533;DHT22;56729;52.036;5.332;2024-02-16T03:03:52;10.40;99.90
69533;DHT22;56729;52.036;5.332;2024-02-16T03:04:55;10.40;99.90
69533;DHT22;56729;52.036;5.332;2024-02-16T03:05:56;10.40;99.90
69533;DHT22;56729;52.036;5.332;2024-02-16T03:06:59;10.40;99.90
69533;DHT22;56729;52.036;5.332;2024-02-16T03:08:01;10.30;99.90
69533;DHT22;56729;52.036;5.332;2024-02-16T03:09:03;10.40;99.90
69533;DHT22;56729;52.036;5.332;2024-02-16T03:10:06;10.30;99.90
69533;DHT22;56729;52.036;5.332;2024-02-16T03:11:11;10.30;99.90
69533;DHT22;56729;52.036;5.332;2024-02-16T03:12:13;10.30;99.90
69533;DHT22;56729;52.036;5.332;2024-02-16T03:13:15;10.30;99.90
69533;DHT22;56729;52.036;5.332;2024-02-16T03:14:19;10.30;99.90
69533;DHT22;56729;52.036;5.332;2024-02-16T03:15:21;10.30;99.90
69533;DHT22;56729;52.036;5.332;2024-02-16T03:16:24;10.30;99.90
69533;DHT22;56729;52.036;5.332;2024-02-16T03:17:27;10.30;99.90
69533;DHT22;56729;52.036;5.332;2024-02-16T03:18:31;10.20;99.90
69533;DHT22;56729;52.036;5.332;2024-02-16T03:19:36;10.20;99.90
69533;DHT22;56729;52.036;5.332;2024-02-16T03:20:38;10.20;99.90
69533;DHT22;56729;52.036;5.332;2024-02-16T03:21:40;10.20;99.90
69533;DHT22;56729;52.036;5.332;2024-02-16T03:22:42;10.20;99.90
69533;DHT22;56729;52.036;5.332;2024-02-16T03:23:44;10.20;99.90
69533;DHT22;56729;52.036;5.332;2024-02-16T03:24:46;10.20;99.90
69533;DHT22;56729;52.036;5.332;2024-02-16T03:25:49;10.20;99.90
69533;DHT22;56729;52.036;5.332;2024-02-16T03:26:51;10.20;99.90
69533;DHT22;56729;52.036;5.332;2024-02-16T03:27:53;10.20;99.90
69533;DHT22;56729;52.036;5.332;2024-02-16T03:28:55;10.20;99.90
69533;DHT22;56729;52.036;5.332;2024-02-16T03:29:57;10.10;99.90
69533;DHT22;56729;52.036;5.332;2024-02-16T03:30:59;10.10;99.90
69533;DHT22;56729;52.036;5.332;2024-02-16T03:32:01;10.10;99.90
69533;DHT22;56729;52.036;5.332;2024-02-16T03:33:04;10.10;99.90
69533;DHT22;56729;52.036;5.332;2024-02-16T03:34:06;10.00;99.90
69533;DHT22;56729;52.036;5.332;2024-02-16T03:35:08;10.00;99.90
69533;DHT22;56729;52.036;5.332;2024-02-16T03:36:10;10.00;99.90
69533;DHT22;56729;52.036;5.332;2024-02-16T03:37:14;10.00;99.90
69533;DHT22;56729;52.036;5.332;2024-02-16T03:38:16;10.00;99.90
69533;DHT22;56729;52.036;5.332;2024-02-16T03:39:18;9.90;99.90
69533;DHT22;56729;52.036;5.332;2024-02-16T03:40:23;9.90;99.90
69533;DHT22;56729;52.036;5.332;2024-02-16T03:41:26;9.90;99.90
69533;DHT22;56729;52.036;5.332;2024-02-16T03:42:28;9.90;99.90
69533;DHT22;56729;52.036;5.332;2024-02-16T03:43:30;9.90;99.90
69533;DHT22;56729;52.036;5.332;2024-02-16T03:44:32;9.90;99.90
69533;DHT22;56729;52.036;5.332;2024-02-16T03:45:33;9.90;99.90
69533;DHT22;56729;52.036;5.332;2024-02-16T03:46:35;9.90;99.90
69533;DHT22;56729;52.036;5.332;2024-02-16T03:47:40;9.90;99.90
69533;DHT22;56729;52.036;5.332;2024-02-16T03:48:43;9.90;99.90
69533;DHT22;56729;52.036;5.332;2024-02-16T03:49:46;9.90;99.90
69533;DHT22;56729;52.036;5.332;2024-02-16T03:50:48;9.90;99.90
69533;DHT22;56729;52.036;5.332;2024-02-16T03:51:50;9.90;99.90
69533;DHT22;56729;52.036;5.332;2024-02-16T03:52:52;9.90;99.90
69533;DHT22;56729;52.036;5.332;2024-02-16T03:53:54;9.90;99.90
69533;DHT22;56729;52.036;5.332;2024-02-16T03:54:56;9.80;99.90
69533;DHT22;56729;52.036;5.332;2024-02-16T03:55:58;9.90;99.90
69533;DHT22;56729;52.036;5.332;2024-02-16T03:57:00;9.80;99.90
69533;DHT22;56729;52.036;5.332;2024-02-16T03:58:02;9.80;99.90
69533;DHT22;56729;52.036;5.332;2024-02-16T03:59:04;9.90;99.90
69533;DHT22;56729;52.036;5.332;2024-02-16T04:00:11;9.80;99.90
69533;DHT22;56729;52.036;5.332;2024-02-16T04:01:15;9.80;99.90
69533;DHT22;56729;52.036;5.332;2024-02-16T04:02:17;9.80;99.90
69533;DHT22;56729;52.036;5.332;2024-02-16T04:03:20;9.80;99.90
69533;DHT22;56729;52.036;5.332;2024-02-16T04:04:22;9.80;99.90
69533;DHT22;56729;52.036;5.332;2024-02-16T04:05:24;9.80;99.90
69533;DHT22;56729;52.036;5.332;2024-02-16T04:06:26;9.80;99.90
69533;DHT22;56729;52.036;5.332;2024-02-16T04:07:28;9.80;99.90
69533;DHT22;56729;52.036;5.332;2024-02-16T04:08:30;9.80;99.90
69533;DHT22;56729;52.036;5.332;2024-02-16T04:09:33;9.80;99.90
69533;DHT22;56729;52.036;5.332;2024-02-16T04:10:36;9.80;99.90
69533;DHT22;56729;52.036;5.332;2024-02-16T04:11:38;9.80;99.90
69533;DHT22;56729;52.036;5.332;2024-02-16T04:12:40;9.80;99.90
69533;DHT22;56729;52.036;5.332;2024-02-16T04:13:42;9.80;99.90
69533;DHT22;56729;52.036;5.332;2024-02-16T04:14:44;9.80;99.90
69533;DHT22;56729;52.036;5.332;2024-02-16T04:15:46;9.80;99.90
69533;DHT22;56729;52.036;5.332;2024-02-16T04:16:49;9.80;99.90
69533;DHT22;56729;52.036;5.332;2024-02-16T04:17:51;9.70;99.90
69533;DHT22;56729;52.036;5.332;2024-02-16T04:18:54;9.80;99.90
69533;DHT22;56729;52.036;5.332;2024-02-16T04:19:57;9.80;99.90
69533;DHT22;56729;52.036;5.332;2024-02-16T04:20:59;9.80;99.90
69533;DHT22;56729;52.036;5.332;2024-02-16T04:22:01;9.80;99.90
69533;DHT22;56729;52.036;5.332;2024-02-16T04:23:03;9.70;99.90
69533;DHT22;56729;52.036;5.332;2024-02-16T04:24:05;9.70;99.90
69533;DHT22;56729;52.036;5.332;2024-02-16T04:25:07;9.70;99.90
69533;DHT22;56729;52.036;5.332;2024-02-16T04:26:10;9.70;99.90
69533;DHT22;56729;52.036;5.332;2024-02-16T04:27:12;9.70;99.90
69533;DHT22;56729;52.036;5.332;2024-02-16T04:28:14;9.70;99.90
69533;DHT22;56729;52.036;5.332;2024-02-16T04:29:16;9.70;99.90
69533;DHT22;56729;52.036;5.332;2024-02-16T04:30:18;9.70;99.90
69533;DHT22;56729;52.036;5.332;2024-02-16T04:31:21;9.70;99.90
69533;DHT22;56729;52.036;5.332;2024-02-16T04:32:24;9.70;99.90
69533;DHT22;56729;52.036;5.332;2024-02-16T04:33:29;9.70;99.90
69533;DHT22;56729;52.036;5.332;2024-02-16T04:34:31;9.70;99.90
69533;DHT22;56729;52.036;5.332;2024-02-16T04:35:33;9.70;99.90
69533;DHT22;56729;52.036;5.332;2024-02-16T04:36:35;9.70;99.90
69533;DHT22;56729;52.036;5.332;2024-02-16T04:37:38;9.70;99.90
69533;DHT22;56729;52.036;5.332;2024-02-16T04:38:41;9.70;99.90
69533;DHT22;56729;52.036;5.332;2024-02-16T04:39:42;9.70;99.90
69533;DHT22;56729;52.036;5.332;2024-02-16T04:40:45;9.70;99.90
69533;DHT22;56729;52.036;5.332;2024-02-16T04:41:47;9.70;99.90
69533;DHT22;56729;52.036;5.332;2024-02-16T04:42:49;9.70;99.90
69533;DHT22;56729;52.036;5.332;2024-02-16T04:43:50;9.70;99.90
69533;DHT22;56729;52.036;5.332;2024-02-16T04:44:52;9.70;99.90
69533;DHT22;56729;52.036;5.332;2024-02-16T04:45:54;9.70;99.90
69533;DHT22;56729;52.036;5.332;2024-02-16T04:46:56;9.70;99.90
69533;DHT22;56729;52.036;5.332;2024-02-16T04:48:02;9.70;99.90
69533;DHT22;56729;52.036;5.332;2024-02-16T04:49:05;9.70;99.90
69533;DHT22;56729;52.036;5.332;2024-02-16T04:50:07;9.70;99.90
69533;DHT22;56729;52.036;5.332;2024-02-16T04:51:13;9.70;99.90
69533;DHT22;56729;52.036;5.332;2024-02-16T04:52:15;9.70;99.90
69533;DHT22;56729;52.036;5.332;2024-02-16T04:53:17;9.70;99.90
69533;DHT22;56729;52.036;5.332;2024-02-16T04:54:19;9.70;99.90
69533;DHT22;56729;52.036;5.332;2024-02-16T04:55:21;9.70;99.90
69533;DHT22;56729;52.036;5.332;2024-02-16T04:56:24;9.70;99.90
69533;DHT22;56729;52.036;5.332;2024-02-16T04:57:26;9.70;99.90
69533;DHT22;56729;52.036;5.332;2024-02-16T04:58:28;9.70;99.90
69533;DHT22;56729;52.036;5.332;2024-02-16T04:59:30;9.70;99.90
69533;DHT22;56729;52.036;5.332;2024-02-16T05:00:32;9.70;99.90
69533;DHT22;56729;52.036;5.332;2024-02-16T05:01:34;9.70;99.90
69533;DHT22;56729;52.036;5.332;2024-02-16T05:02:36;9.70;99.90
69533;DHT22;56729;52.036;5.332;2024-02-16T05:03:38;9.70;99.90
69533;DHT22;56729;52.036;5.332;2024-02-16T05:04:43;9.60;99.90
69533;DHT22;56729;52.036;5.332;2024-02-16T05:05:44;9.70;99.90
69533;DHT22;56729;52.036;5.332;2024-02-16T05:06:48;9.70;99.90
69533;DHT22;56729;52.036;5.332;2024-02-16T05:07:50;9.60;99.90
69533;DHT22;56729;52.036;5.332;2024-02-16T05:08:52;9.70;99.90
69533;DHT22;56729;52.036;5.332;2024-02-16T05:09:54;9.70;99.90
69533;DHT22;56729;52.036;5.332;2024-02-16T05:11:01;9.70;99.90
69533;DHT22;56729;52.036;5.332;2024-02-16T05:12:04;9.60;99.90
69533;DHT22;56729;52.036;5.332;2024-02-16T05:13:06;9.70;99.90
69533;DHT22;56729;52.036;5.332;2024-02-16T05:14:10;9.70;99.90
69533;DHT22;56729;52.036;5.332;2024-02-16T05:15:13;9.70;99.90
69533;DHT22;56729;52.036;5.332;2024-02-16T05:16:15;9.70;99.90
69533;DHT22;56729;52.036;5.332;2024-02-16T05:17:19;9.70;99.90
69533;DHT22;56729;52.036;5.332;2024-02-16T05:18:24;9.60;99.90
69533;DHT22;56729;52.036;5.332;2024-02-16T05:19:27;9.70;99.90
69533;DHT22;56729;52.036;5.332;2024-02-16T05:20:29;9.70;99.90
69533;DHT22;56729;52.036;5.332;2024-02-16T05:21:30;9.70;99.90
69533;DHT22;56729;52.036;5.332;2024-02-16T05:22:33;9.70;99.90
69533;DHT22;56729;52.036;5.332;2024-02-16T05:23:35;9.70;99.90
69533;DHT22;56729;52.036;5.332;2024-02-16T05:24:37;9.70;99.90
69533;DHT22;56729;52.036;5.332;2024-02-16T05:25:39;9.70;99.90
69533;DHT22;56729;52.036;5.332;2024-02-16T05:26:41;9.70;99.90
69533;DHT22;56729;52.036;5.332;2024-02-16T05:27:44;9.70;99.90
69533;DHT22;56729;52.036;5.332;2024-02-16T05:28:46;9.70;99.90
69533;DHT22;56729;52.036;5.332;2024-02-16T05:29:48;9.70;99.90
69533;DHT22;56729;52.036;5.332;2024-02-16T05:30:52;9.70;99.90
69533;DHT22;56729;52.036;5.332;2024-02-16T05:31:54;9.70;99.90
69533;DHT22;56729;52.036;5.332;2024-02-16T05:32:56;9.70;99.90
69533;DHT22;56729;52.036;5.332;2024-02-16T05:34:01;9.70;99.90
69533;DHT22;56729;52.036;5.332;2024-02-16T05:35:04;9.70;99.90
69533;DHT22;56729;52.036;5.332;2024-02-16T05:36:19;9.80;99.90
69533;DHT22;56729;52.036;5.332;2024-02-16T05:37:29;9.80;99.90
69533;DHT22;56729;52.036;5.332;2024-02-16T05:38:33;9.80;99.90
69533;DHT22;56729;52.036;5.332;2024-02-16T05:39:42;9.80;99.90
69533;DHT22;56729;52.036;5.332;2024-02-16T05:40:59;9.80;99.90
69533;DHT22;56729;52.036;5.332;2024-02-16T05:42:02;9.80;99.90
69533;DHT22;56729;52.036;5.332;2024-02-16T05:43:04;9.80;99.90
69533;DHT22;56729;52.036;5.332;2024-02-16T05:44:06;9.80;99.90
69533;DHT22;56729;52.036;5.332;2024-02-16T05:45:09;9.80;99.90
69533;DHT22;56729;52.036;5.332;2024-02-16T05:46:16;9.80;99.90
69533;DHT22;56729;52.036;5.332;2024-02-16T05:47:18;9.80;99.90
69533;DHT22;56729;52.036;5.332;2024-02-16T05:48:20;9.90;99.90
69533;DHT22;56729;52.036;5.332;2024-02-16T05:49:24;9.90;99.90
69533;DHT22;56729;52.036;5.332;2024-02-16T05:50:26;9.90;99.90
69533;DHT22;56729;52.036;5.332;2024-02-16T05:51:35;9.90;99.90
69533;DHT22;56729;52.036;5.332;2024-02-16T05:52:39;9.90;99.90
69533;DHT22;56729;52.036;5.332;2024-02-16T05:53:41;9.90;99.90
69533;DHT22;56729;52.036;5.332;2024-02-16T05:54:44;9.90;99.90
69533;DHT22;56729;52.036;5.332;2024-02-16T05:55:46;9.90;99.90
69533;DHT22;56729;52.036;5.332;2024-02-16T05:56:49;10.00;99.90
69533;DHT22;56729;52.036;5.332;2024-02-16T05:57:51;9.90;99.90
69533;DHT22;56729;52.036;5.332;2024-02-16T05:58:53;10.00;99.90
69533;DHT22;56729;52.036;5.332;2024-02-16T05:59:55;10.00;99.90
69533;DHT22;56729;52.036;5.332;2024-02-16T06:01:00;10.00;99.90
69533;DHT22;56729;52.036;5.332;2024-02-16T06:02:02;10.00;99.90
69533;DHT22;56729;52.036;5.332;2024-02-16T06:03:04;10.00;99.90
69533;DHT22;56729;52.036;5.332;2024-02-16T06:04:06;10.00;99.90
69533;DHT22;56729;52.036;5.332;2024-02-16T06:05:10;10.00;99.90
69533;DHT22;56729;52.036;5.332;2024-02-16T06:06:12;10.00;99.90
69533;DHT22;56729;52.036;5.332;2024-02-16T06:07:15;10.00;99.90
69533;DHT22;56729;52.036;5.332;2024-02-16T06:08:17;10.00;99.90
69533;DHT22;56729;52.036;5.332;2024-02-16T06:09:20;10.00;99.90
69533;DHT22;56729;52.036;5.332;2024-02-16T06:10:22;10.00;99.90
69533;DHT22;56729;52.036;5.332;2024-02-16T06:11:24;10.00;99.90
69533;DHT22;56729;52.036;5.332;2024-02-16T06:12:28;10.00;99.90
69533;DHT22;56729;52.036;5.332;2024-02-16T06:13:30;10.00;99.90
69533;DHT22;56729;52.036;5.332;2024-02-16T06:14:32;10.00;99.90
69533;DHT22;56729;52.036;5.332;2024-02-16T06:15:34;9.90;99.90
69533;DHT22;56729;52.036;5.332;2024-02-16T06:16:39;9.90;99.90
69533;DHT22;56729;52.036;5.332;2024-02-16T06:17:41;9.90;99.90
69533;DHT22;56729;52.036;5.332;2024-02-16T06:18:44;9.90;99.90
69533;DHT22;56729;52.036;5.332;2024-02-16T06:19:46;9.90;99.90
69533;DHT22;56729;52.036;5.332;2024-02-16T06:20:48;9.90;99.90
69533;DHT22;56729;52.036;5.332;2024-02-16T06:21:50;9.90;99.90
69533;DHT22;56729;52.036;5.332;2024-02-16T06:22:52;9.90;99.90
69533;DHT22;56729;52.036;5.332;2024-02-16T06:23:54;9.90;99.90
69533;DHT22;56729;52.036;5.332;2024-02-16T06:24:56;9.90;99.90
69533;DHT22;56729;52.036;5.332;2024-02-16T06:25:58;9.90;99.90
69533;DHT22;56729;52.036;5.332;2024-02-16T06:27:00;9.90;99.90
69533;DHT22;56729;52.036;5.332;2024-02-16T06:28:02;9.90;99.90
69533;DHT22;56729;52.036;5.332;2024-02-16T06:29:04;9.90;99.90
69533;DHT22;56729;52.036;5.332;2024-02-16T06:30:07;9.90;99.90
69533;DHT22;56729;52.036;5.332;2024-02-16T06:31:13;9.90;99.90
69533;DHT22;56729;52.036;5.332;2024-02-16T06:32:16;9.90;99.90
69533;DHT22;56729;52.036;5.332;2024-02-16T06:33:19;9.90;99.90
69533;DHT22;56729;52.036;5.332;2024-02-16T06:34:21;9.90;99.90
69533;DHT22;56729;52.036;5.332;2024-02-16T06:35:23;9.90;99.90
69533;DHT22;56729;52.036;5.332;2024-02-16T06:36:25;9.90;99.90
69533;DHT22;56729;52.036;5.332;2024-02-16T06:37:28;9.90;99.90
69533;DHT22;56729;52.036;5.332;2024-02-16T06:38:30;9.90;99.90